.
WxDataArchive / Data Records for 2012-01-09
2012-01-08 January 2012 2012-01-10

Data Records for Monday, 09 January 2012

Time	Temp	Chill	HIndex	Humid	Dewpt	 Wind 	HiWind	WindDir	Rain 	Barom 
-----	----	-----	------	-----	-----	------	------	-------	-----	----- 
00:00	29.4	29.4	29.4	85	25.5	0	0	---	0.00	30.308 
00:05	29.5	29.5	29.5	85	25.6	0	0	---	0.00	30.308 
00:10	29.7	29.7	29.7	86	26.0	0	0	---	0.00	30.308 
00:15	29.7	29.7	29.7	86	26.0	0	0	---	0.00	30.302 
00:20	29.8	29.8	29.8	86	26.1	0	0	---	0.00	30.302 
00:25	29.8	29.8	29.8	85	25.9	0	0	---	0.00	30.302 
00:30	29.8	29.8	29.8	85	25.9	0	0	---	0.00	30.299 
00:35	30.0	30.0	30.0	85	26.0	0	0	---	0.00	30.299 
00:40	30.0	30.0	30.0	85	26.0	0	0	---	0.00	30.299 
00:45	30.0	30.0	30.0	86	26.3	0	0	---	0.00	30.293 
00:50	30.1	30.1	30.1	86	26.4	0	0	---	0.00	30.293 
00:55	30.3	30.3	30.3	86	26.6	0	0	---	0.00	30.293 
01:00	30.3	30.3	30.3	85	26.3	0	0	---	0.00	30.290 
01:05	30.3	30.3	30.3	85	26.3	0	0	---	0.00	30.290 
01:10	30.3	30.3	30.3	85	26.3	0	0	---	0.00	30.290 
01:15	30.4	30.4	30.4	85	26.4	0	0	---	0.00	30.289 
01:20	30.4	30.4	30.4	85	26.4	0	0	---	0.00	30.289 
01:25	30.4	30.4	30.4	85	26.4	0	0	---	0.00	30.289 
01:30	30.4	30.4	30.4	85	26.4	0	0	---	0.00	30.290 
01:35	30.6	30.6	30.6	85	26.6	0	0	---	0.00	30.290 
01:40	30.6	30.6	30.6	85	26.6	0	0	---	0.00	30.290 
01:45	30.6	30.6	30.6	85	26.6	0	0	---	0.00	30.284 
01:50	30.6	30.6	30.6	85	26.6	0	0	---	0.00	30.284 
01:55	30.7	30.7	30.7	85	26.7	0	0	---	0.00	30.284 
02:00	30.7	30.7	30.7	85	26.7	0	0	---	0.00	30.283 
02:05	30.7	30.7	30.7	85	26.7	0	0	---	0.00	30.283 
02:10	30.7	30.7	30.7	85	26.7	0	0	---	0.00	30.283 
02:15	30.7	30.7	30.7	85	26.7	0	0	---	0.00	30.273 
02:20	30.7	30.7	30.7	85	26.7	0	0	---	0.00	30.273 
02:25	30.7	30.7	30.7	85	26.7	0	0	---	0.00	30.273 
02:30	30.6	30.6	30.6	85	26.6	0	0	---	0.00	30.273 
02:35	30.4	30.4	30.4	85	26.4	0	0	---	0.00	30.273 
02:40	30.4	30.4	30.4	85	26.4	0	0	---	0.00	30.273 
02:45	30.3	30.3	30.3	86	26.6	0	0	---	0.00	30.273 
02:50	30.3	30.3	30.3	86	26.6	0	0	---	0.00	30.273 
02:55	30.3	30.3	30.3	86	26.6	0	0	---	0.00	30.273 
03:00	30.3	30.3	30.3	86	26.6	0	0	---	0.00	30.274 
03:05	30.3	30.3	30.3	86	26.6	0	0	---	0.00	30.274 
03:10	30.3	30.3	30.3	86	26.6	0	0	---	0.00	30.274 
03:15	30.4	30.4	30.4	86	26.7	0	0	---	0.00	30.272 
03:20	30.4	30.4	30.4	86	26.7	0	0	---	0.00	30.272 
03:25	30.6	30.6	30.6	86	26.9	0	0	---	0.00	30.272 
03:30	30.6	30.6	30.6	86	26.9	0	0	---	0.00	30.269 
03:35	30.7	30.7	30.7	86	27.0	0	0	---	0.00	30.269 
03:40	30.7	30.7	30.7	86	27.0	0	0	---	0.00	30.269 
03:45	30.9	30.9	30.9	85	26.9	0	0	---	0.00	30.258 
03:50	31.2	31.2	31.2	85	27.2	0	0	---	0.00	30.258 
03:55	31.2	31.2	31.2	84	26.9	0	0	---	0.00	30.258 
04:00	31.3	31.3	31.3	84	27.0	0	0	---	0.00	30.253 
04:05	31.3	31.3	31.3	84	27.0	0	0	---	0.00	30.253 
04:10	31.3	31.3	31.3	83	26.7	0	0	---	0.00	30.253 
04:15	31.3	31.3	31.3	83	26.7	0	0	---	0.00	30.246 
04:20	31.2	31.2	31.2	83	26.6	0	0	---	0.00	30.246 
04:25	31.2	31.2	31.2	83	26.6	0	0	---	0.00	30.246 
04:30	31.0	31.0	31.0	82	26.2	0	0	---	0.00	30.237 
04:35	30.9	30.9	30.9	83	26.4	0	0	---	0.00	30.237 
04:40	30.7	30.7	30.7	82	25.9	0	0	---	0.00	30.237 
04:45	30.6	30.6	30.6	82	25.8	0	0	---	0.00	30.233 
04:50	30.4	30.4	30.4	82	25.6	0	0	---	0.00	30.233 
04:55	30.3	30.3	30.3	83	25.8	0	0	---	0.00	30.233 
05:00	30.1	30.1	30.1	83	25.6	0	0	---	0.00	30.230 
05:05	30.0	30.0	30.0	83	25.5	0	0	---	0.00	30.230 
05:10	29.8	29.8	29.8	83	25.3	0	0	---	0.00	30.230 
05:15	29.7	29.7	29.7	83	25.2	0	0	---	0.00	30.229 
05:20	29.5	29.5	29.5	83	25.0	0	0	---	0.00	30.229 
05:25	29.3	29.3	29.3	83	24.8	0	0	---	0.00	30.229 
05:30	29.1	29.1	29.1	84	24.9	0	0	---	0.00	30.229 
05:35	29.0	29.0	29.0	84	24.8	0	0	---	0.00	30.229 
05:40	28.7	28.7	28.7	84	24.5	0	0	---	0.00	30.229 
05:45	28.4	28.4	28.4	84	24.2	0	0	---	0.00	30.232 
05:50	28.2	28.2	28.2	84	24.0	0	0	---	0.00	30.232 
05:55	27.9	27.9	27.9	84	23.7	0	0	---	0.00	30.232 
06:00	27.6	27.6	27.6	85	23.7	0	0	---	0.00	30.228 
06:05	27.5	27.5	27.5	85	23.6	0	0	---	0.00	30.228 
06:10	27.2	27.2	27.2	85	23.3	0	0	---	0.00	30.228 
06:15	26.9	26.9	26.9	85	23.0	0	0	---	0.00	30.233 
06:20	26.7	26.7	26.7	85	22.8	0	0	---	0.00	30.233 
06:25	26.4	26.4	26.4	85	22.5	0	0	---	0.00	30.233 
06:30	26.1	26.1	26.1	85	22.2	0	0	---	0.00	30.232 
06:35	26.0	26.0	26.0	86	22.4	0	0	---	0.00	30.232 
06:40	25.8	25.8	25.8	86	22.2	0	0	---	0.00	30.232 
06:45	25.7	25.7	25.7	86	22.1	0	0	---	0.00	30.232 
06:50	25.6	25.6	25.6	86	22.0	0	0	---	0.00	30.232 
06:55	25.4	25.4	25.4	86	21.8	0	0	---	0.00	30.232 
07:00	25.3	25.3	25.3	86	21.7	0	0	---	0.00	30.231 
07:05	25.1	25.1	25.1	87	21.8	0	0	---	0.00	30.231 
07:10	25.0	25.0	25.0	87	21.7	0	0	---	0.00	30.231 
07:15	24.8	24.8	24.8	87	21.5	0	0	---	0.00	30.219 
07:20	24.8	24.8	24.8	88	21.8	0	0	---	0.00	30.219 
07:25	24.7	24.7	24.7	88	21.7	0	0	---	0.00	30.219 
07:30	24.7	24.7	24.7	88	21.7	0	0	---	0.00	30.211 
07:35	24.5	24.5	24.5	88	21.5	0	0	---	0.00	30.211 
07:40	24.5	24.5	24.5	88	21.5	0	0	---	0.00	30.211 
07:45	24.5	24.5	24.5	88	21.5	0	0	---	0.00	30.214 
07:50	24.5	24.5	24.5	88	21.5	0	0	---	0.00	30.214 
07:55	24.5	24.5	24.5	88	21.5	0	0	---	0.00	30.214 
08:00	24.4	24.4	24.4	88	21.4	0	0	---	0.00	30.204 
08:05	24.2	24.2	24.2	88	21.2	0	0	---	0.00	30.204 
08:10	24.4	24.4	24.4	89	21.6	0	0	---	0.00	30.204 
08:15	24.4	24.4	24.4	89	21.6	0	0	---	0.00	30.207 
08:20	24.4	24.4	24.4	89	21.6	0	0	---	0.00	30.207 
08:25	24.2	24.2	24.2	89	21.4	0	0	---	0.00	30.207 
08:30	24.2	24.2	24.2	89	21.4	0	0	---	0.00	30.203 
08:35	24.2	24.2	24.2	89	21.4	0	0	---	0.00	30.203 
08:40	24.2	24.2	24.2	89	21.4	0	0	---	0.00	30.203 
08:45	24.2	24.2	24.2	89	21.4	0	0	---	0.00	30.200 
08:50	24.4	24.4	24.4	89	21.6	0	0	---	0.00	30.200 
08:55	24.7	24.7	24.7	90	22.2	0	0	---	0.00	30.200 
09:00	24.8	24.8	24.8	90	22.3	0	0	---	0.00	30.198 
09:05	25.4	25.4	25.4	90	22.9	0	0	---	0.00	30.198 
09:10	25.8	25.8	25.8	91	23.5	0	0	---	0.00	30.198 
09:15	26.7	26.7	26.7	92	24.7	0	2	112	0.00	30.196 
09:20	27.8	27.8	27.8	92	25.8	0	1	112	0.00	30.196 
09:25	28.8	28.8	28.8	92	26.8	0	2	112	0.00	30.196 
09:30	29.7	29.7	29.7	91	27.4	1	4	112	0.00	30.196 
09:35	30.6	30.6	30.6	89	27.8	0	2	248	0.00	30.196 
09:40	31.2	31.2	31.2	86	27.5	1	3	248	0.00	30.196 
09:45	31.8	31.8	31.8	83	27.2	0	3	248	0.00	30.199 
09:50	32.2	32.2	32.2	80	26.7	0	2	248	0.00	30.199 
09:55	32.5	32.5	32.5	78	26.4	0	1	248	0.00	30.199 
10:00	32.8	32.8	32.8	76	26.1	0	1	248	0.00	30.197 
10:05	33.1	33.1	33.1	74	25.7	0	1	248	0.00	30.197 
10:10	33.5	33.5	33.5	72	25.5	0	3	248	0.00	30.197 
10:15	33.8	33.8	33.8	70	25.1	1	4	248	0.00	30.195 
10:20	34.4	34.4	34.4	69	25.3	1	4	248	0.00	30.195 
10:25	35.0	35.0	35.0	68	25.5	0	2	248	0.00	30.195 
10:30	35.6	35.6	35.6	65	25.0	1	5	248	0.00	30.195 
10:35	36.2	36.2	36.2	64	25.2	1	4	248	0.00	30.195 
10:40	36.8	36.8	36.8	63	25.4	1	4	248	0.00	30.195 
10:45	37.2	37.2	37.2	62	25.4	1	4	248	0.00	30.195 
10:50	37.3	37.3	37.3	61	25.1	2	4	248	0.00	30.195 
10:55	37.6	37.6	37.6	60	25.0	1	3	248	0.00	30.195 
11:00	37.8	37.8	37.8	60	25.2	1	5	248	0.00	30.190 
11:05	38.0	38.0	38.0	60	25.4	1	3	248	0.00	30.190 
11:10	38.3	38.3	38.3	58	24.8	1	4	248	0.00	30.190 
11:15	38.8	38.8	38.8	58	25.3	1	4	248	0.00	30.183 
11:20	38.8	38.8	38.8	56	24.5	2	4	248	0.00	30.183 
11:25	38.8	38.8	38.8	57	24.9	1	3	248	0.00	30.183 
11:30	39.1	39.1	39.1	57	25.2	1	3	248	0.00	30.176 
11:35	39.2	39.2	39.2	56	24.8	1	3	225	0.00	30.176 
11:40	39.2	39.2	39.2	56	24.8	1	4	225	0.00	30.176 
11:45	39.1	39.1	39.1	56	24.7	2	5	248	0.00	30.165 
11:50	39.1	39.1	39.1	56	24.7	2	4	225	0.00	30.165 
11:55	39.1	39.1	39.1	56	24.7	1	5	248	0.00	30.165 
12:00	39.1	39.1	39.1	56	24.7	2	4	248	0.00	30.158 
12:05	39.5	39.5	39.5	56	25.1	1	4	248	0.00	30.158 
12:10	39.9	39.9	39.9	55	25.1	2	5	248	0.00	30.158 
12:15	40.2	40.2	40.2	55	25.3	1	4	248	0.00	30.145 
12:20	40.3	40.3	40.3	54	25.0	1	5	225	0.00	30.145 
12:25	40.3	40.3	40.3	54	25.0	1	4	248	0.00	30.145 
12:30	40.3	40.3	40.3	54	25.0	0	3	248	0.00	30.131 
12:35	40.3	40.3	40.3	54	25.0	1	3	270	0.00	30.131 
12:40	40.3	40.3	40.3	53	24.5	1	6	248	0.00	30.131 
12:45	40.2	40.2	40.2	54	24.9	1	3	292	0.00	30.114 
12:50	40.2	40.2	40.2	54	24.9	1	3	248	0.00	30.114 
12:55	40.3	40.3	40.3	54	25.0	1	2	248	0.00	30.114 
13:00	40.3	40.3	40.3	53	24.5	1	3	248	0.00	30.108 
13:05	40.3	40.3	40.3	52	24.1	1	4	248	0.00	30.108 
13:10	40.3	40.3	40.3	53	24.5	1	3	248	0.00	30.108 
13:15	40.5	40.5	40.5	52	24.3	1	4	248	0.00	30.095 
13:20	40.5	40.5	40.5	54	25.2	0	2	248	0.00	30.095 
13:25	40.6	40.6	40.6	54	25.3	0	2	248	0.00	30.095 
13:30	40.8	40.8	40.8	54	25.5	1	5	248	0.00	30.079 
13:35	40.8	40.8	40.8	53	25.0	1	4	248	0.00	30.079 
13:40	40.6	40.6	40.6	52	24.4	1	3	248	0.00	30.079 
13:45	40.6	40.6	40.6	52	24.4	1	5	248	0.00	30.067 
13:50	40.6	40.6	40.6	52	24.4	1	5	248	0.00	30.067 
13:55	40.6	40.6	40.6	51	23.9	1	4	248	0.00	30.067 
14:00	40.8	40.8	40.8	50	23.6	1	5	248	0.00	30.059 
14:05	40.9	40.9	40.9	50	23.7	2	7	248	0.00	30.059 
14:10	41.1	41.1	41.1	49	23.4	2	5	248	0.00	30.059 
14:15	41.3	41.3	41.3	49	23.6	2	7	248	0.00	30.042 
14:20	41.6	41.6	41.6	50	24.4	1	4	248	0.00	30.042 
14:25	41.8	41.8	41.8	48	23.6	2	7	248	0.00	30.042 
14:30	41.8	41.8	41.8	49	24.1	1	5	248	0.00	30.018 
14:35	41.8	41.8	41.8	48	23.6	2	5	248	0.00	30.018 
14:40	41.8	41.8	41.8	49	24.1	1	4	225	0.00	30.018 
14:45	41.6	41.6	41.6	50	24.4	2	6	225	0.00	30.027 
14:50	41.5	41.5	41.5	50	24.3	2	5	248	0.00	30.027 
14:55	41.5	41.5	41.5	51	24.7	2	5	248	0.00	30.027 
15:00	41.6	41.6	41.6	51	24.8	1	4	248	0.00	30.031 
15:05	41.8	41.8	41.8	50	24.5	1	4	248	0.00	30.031 
15:10	41.8	41.8	41.8	49	24.1	2	7	248	0.00	30.031 
15:15	41.8	41.8	41.8	49	24.1	2	4	248	0.00	30.032 
15:20	42.3	42.3	42.3	49	24.5	2	5	248	0.00	30.032 
15:25	42.5	42.5	42.5	48	24.2	2	4	248	0.00	30.032 
15:30	42.5	42.5	42.5	47	23.7	2	6	248	0.00	30.024 
15:35	42.6	42.6	42.6	49	24.8	1	4	248	0.00	30.024 
15:40	42.8	42.8	42.8	49	25.0	1	3	248	0.00	30.024 
15:45	42.8	42.8	42.8	47	24.0	2	5	270	0.00	30.024 
15:50	42.5	42.5	42.5	47	23.7	1	4	270	0.00	30.024 
15:55	42.3	42.3	42.3	47	23.5	2	10	248	0.00	30.024 
16:00	42.2	42.2	42.2	48	23.9	2	7	248	0.00	30.025 
16:05	41.9	41.9	41.9	48	23.7	3	7	248	0.00	30.025 
16:10	41.8	41.8	41.8	49	24.1	2	7	248	0.00	30.025 
16:15	41.9	41.9	41.9	50	24.6	2	6	248	0.00	30.023 
16:20	42.1	42.1	42.1	50	24.8	1	4	248	0.00	30.023 
16:25	42.2	42.2	42.2	49	24.4	2	5	248	0.00	30.023 
16:30	42.3	42.3	42.3	49	24.5	2	5	248	0.00	30.018 
16:35	42.3	42.3	42.3	49	24.5	1	5	248	0.00	30.018 
16:40	42.5	42.5	42.5	49	24.7	1	5	248	0.00	30.018 
16:45	42.5	42.5	42.5	48	24.2	3	7	248	0.00	30.017 
16:50	42.5	42.5	42.5	48	24.2	2	6	248	0.00	30.017 
16:55	42.3	42.3	42.3	48	24.0	1	7	270	0.00	30.017 
17:00	42.3	42.3	42.3	49	24.5	1	3	270	0.00	30.013 
17:05	42.1	42.1	42.1	49	24.3	1	4	270	0.00	30.013 
17:10	41.9	41.9	41.9	49	24.1	1	5	248	0.00	30.013 
17:15	41.8	41.8	41.8	49	24.1	2	6	248	0.00	30.013 
17:20	41.6	41.6	41.6	50	24.4	1	4	270	0.00	30.013 
17:25	41.5	41.5	41.5	50	24.3	1	4	248	0.00	30.013 
17:30	41.3	41.3	41.3	50	24.1	0	3	270	0.00	30.014 
17:35	41.1	41.1	41.1	51	24.4	0	3	270	0.00	30.014 
17:40	40.8	40.8	40.8	51	24.1	1	3	270	0.00	30.014 
17:45	40.6	40.6	40.6	51	23.9	1	3	270	0.00	30.006 
17:50	40.5	40.5	40.5	52	24.3	0	3	270	0.00	30.006 
17:55	40.2	40.2	40.2	53	24.5	1	3	248	0.00	30.006 
18:00	40.1	40.1	40.1	53	24.4	1	3	248	0.00	30.003 
18:05	39.9	39.9	39.9	53	24.2	1	4	248	0.00	30.003 
18:10	40.1	40.1	40.1	53	24.4	2	5	248	0.00	30.003 
18:15	40.1	40.1	40.1	53	24.4	1	4	248	0.00	30.008 
18:20	40.1	40.1	40.1	54	24.8	1	3	248	0.00	30.008 
18:25	39.9	39.9	39.9	54	24.6	1	3	248	0.00	30.008 
18:30	39.9	39.9	39.9	54	24.6	1	5	248	0.00	30.009 
18:35	39.8	39.8	39.8	54	24.5	0	2	270	0.00	30.009 
18:40	39.6	39.6	39.6	55	24.8	1	3	270	0.00	30.009 
18:45	39.5	39.5	39.5	55	24.7	1	3	248	0.00	30.011 
18:50	39.5	39.5	39.5	55	24.7	1	4	248	0.00	30.011 
18:55	39.5	39.5	39.5	55	24.7	1	5	248	0.00	30.011 
19:00	39.5	39.5	39.5	55	24.7	1	4	248	0.00	30.009 
19:05	39.5	39.5	39.5	54	24.2	2	5	248	0.00	30.009 
19:10	39.6	39.6	39.6	54	24.3	2	5	248	0.00	30.009 
19:15	39.8	39.8	39.8	54	24.5	2	5	248	0.00	30.009 
19:20	39.8	39.8	39.8	54	24.5	2	6	248	0.00	30.009 
19:25	39.8	39.8	39.8	53	24.1	2	6	248	0.00	30.009 
19:30	39.8	39.8	39.8	53	24.1	1	4	248	0.00	30.008 
19:35	39.8	39.8	39.8	53	24.1	2	5	248	0.00	30.008 
19:40	39.8	39.8	39.8	53	24.1	2	5	248	0.00	30.008 
19:45	39.6	39.6	39.6	53	23.9	2	4	248	0.00	30.009 
19:50	39.8	39.8	39.8	53	24.1	2	6	248	0.00	30.009 
19:55	39.6	39.6	39.6	53	23.9	2	5	248	0.00	30.009 
20:00	39.5	39.5	39.5	53	23.8	2	5	248	0.00	30.012 
20:05	39.5	39.5	39.5	53	23.8	2	6	248	0.00	30.012 
20:10	39.6	39.6	39.6	53	23.9	2	6	248	0.00	30.012 
20:15	39.5	39.5	39.5	53	23.8	2	5	248	0.00	30.019 
20:20	39.5	39.5	39.5	53	23.8	2	6	248	0.00	30.019 
20:25	39.5	39.5	39.5	53	23.8	2	6	248	0.00	30.019 
20:30	39.5	39.5	39.5	53	23.8	2	6	248	0.00	30.023 
20:35	39.6	39.6	39.6	52	23.4	2	6	248	0.00	30.023 
20:40	39.8	39.8	39.8	52	23.6	2	5	248	0.00	30.023 
20:45	39.9	39.9	39.9	51	23.3	3	7	248	0.00	30.024 
20:50	40.1	40.1	40.1	51	23.4	3	10	248	0.00	30.024 
20:55	40.2	40.2	40.2	51	23.5	3	7	248	0.00	30.024 
21:00	40.2	40.2	40.2	51	23.5	3	6	248	0.00	30.027 
21:05	39.9	39.9	39.9	52	23.7	2	6	248	0.00	30.027 
21:10	39.8	39.8	39.8	52	23.6	3	7	248	0.00	30.027 
21:15	39.8	39.8	39.8	53	24.1	2	5	270	0.00	30.025 
21:20	39.6	39.6	39.6	53	23.9	3	5	270	0.00	30.025 
21:25	39.5	39.5	39.5	54	24.2	3	9	270	0.00	30.025 
21:30	39.3	39.3	39.3	54	24.1	2	5	248	0.00	30.023 
21:35	39.2	39.2	39.2	54	24.0	2	6	248	0.00	30.023 
21:40	38.9	38.9	38.9	55	24.1	2	5	248	0.00	30.023 
21:45	38.8	38.8	38.8	55	24.0	2	6	248	0.00	30.016 
21:50	38.8	38.8	38.8	56	24.5	2	5	248	0.00	30.016 
21:55	38.6	38.6	38.6	56	24.3	3	5	248	0.00	30.016 
22:00	38.5	38.5	38.5	56	24.2	2	5	248	0.00	30.015 
22:05	38.3	38.3	38.3	57	24.4	2	6	248	0.00	30.015 
22:10	38.2	38.2	38.2	57	24.3	2	9	270	0.00	30.015 
22:15	38.2	38.2	38.2	57	24.3	2	5	248	0.00	30.011 
22:20	37.9	37.9	37.9	58	24.5	2	4	248	0.00	30.011 
22:25	37.9	37.9	37.9	58	24.5	2	5	248	0.00	30.011 
22:30	37.8	37.8	37.8	58	24.4	2	4	248	0.00	30.012 
22:35	37.8	37.8	37.8	58	24.4	2	5	248	0.00	30.012 
22:40	37.8	37.8	37.8	59	24.8	3	7	248	0.00	30.012 
22:45	37.6	37.6	37.6	59	24.6	2	4	270	0.00	30.013 
22:50	37.6	37.6	37.6	59	24.6	2	6	248	0.00	30.013 
22:55	37.6	37.6	37.6	59	24.6	2	6	225	0.00	30.013 
23:00	37.5	37.5	37.5	60	24.9	2	5	248	0.00	30.013 
23:05	37.5	37.5	37.5	60	24.9	2	5	248	0.00	30.013 
23:10	37.3	37.3	37.3	60	24.7	2	5	270	0.00	30.013 
23:15	37.3	37.3	37.3	60	24.7	2	7	248	0.00	30.012 
23:20	37.3	37.3	37.3	60	24.7	3	9	248	0.00	30.012 
23:25	37.3	37.3	37.3	60	24.7	2	5	270	0.00	30.012 
23:30	37.3	37.3	37.3	61	25.1	2	6	248	0.00	30.011 
23:35	37.3	37.3	37.3	61	25.1	3	6	248	0.00	30.011 
23:40	37.3	37.3	37.3	61	25.1	2	4	248	0.00	30.011 
23:45	37.5	37.5	37.5	61	25.3	3	6	248	0.00	30.001 
23:50	37.5	37.5	37.5	61	25.3	3	5	270	0.00	30.001 
23:55	37.6	37.6	37.6	61	25.4	3	5	270	0.00	30.001 

CoCoRaHS
IN-AL-39
A2 Web Hosting
Creative Commons License
GoDaddy
search engine by freefind advanced

loaded 2018-11-17 19:29:12 • last modified 2010-11-18 10:43:29
Privacy PolicyDisclaimer
• wx.awcolley.com is powered by PmWiki v.2002016 •
• all content (unless otherwise noted) © 2018 A W Colley